sensor_id;sensor_type;location;lat;lon;timestamp;P1;durP1;ratioP1;P2;durP2;ratioP2
2119;SDS011;1066;52.540;13.420;2023-02-28T00:01:13;8.13;;;4.30;;
2119;SDS011;1066;52.540;13.420;2023-02-28T00:03:39;4.53;;;4.03;;
2119;SDS011;1066;52.540;13.420;2023-02-28T00:06:04;4.90;;;3.83;;
2119;SDS011;1066;52.540;13.420;2023-02-28T00:08:30;4.63;;;3.73;;
2119;SDS011;1066;52.540;13.420;2023-02-28T00:10:55;4.30;;;3.20;;
2119;SDS011;1066;52.540;13.420;2023-02-28T00:13:20;6.07;;;4.03;;
2119;SDS011;1066;52.540;13.420;2023-02-28T00:15:45;3.37;;;3.00;;
2119;SDS011;1066;52.540;13.420;2023-02-28T00:18:11;6.50;;;3.20;;
2119;SDS011;1066;52.540;13.420;2023-02-28T00:20:36;4.03;;;3.17;;
2119;SDS011;1066;52.540;13.420;2023-02-28T00:23:02;4.67;;;3.13;;
2119;SDS011;1066;52.540;13.420;2023-02-28T00:25:27;5.37;;;3.20;;
2119;SDS011;1066;52.540;13.420;2023-02-28T00:27:52;4.87;;;3.40;;
2119;SDS011;1066;52.540;13.420;2023-02-28T00:30:19;7.40;;;3.23;;
2119;SDS011;1066;52.540;13.420;2023-02-28T00:32:44;5.90;;;3.80;;
2119;SDS011;1066;52.540;13.420;2023-02-28T00:35:10;5.87;;;3.27;;
2119;SDS011;1066;52.540;13.420;2023-02-28T00:37:35;5.93;;;3.43;;
2119;SDS011;1066;52.540;13.420;2023-02-28T00:40:00;5.07;;;3.70;;
2119;SDS011;1066;52.540;13.420;2023-02-28T00:42:25;4.40;;;3.90;;
2119;SDS011;1066;52.540;13.420;2023-02-28T00:44:51;3.70;;;3.00;;
2119;SDS011;1066;52.540;13.420;2023-02-28T00:47:16;6.80;;;3.63;;
2119;SDS011;1066;52.540;13.420;2023-02-28T00:49:41;4.80;;;3.50;;
2119;SDS011;1066;52.540;13.420;2023-02-28T00:52:06;6.50;;;4.20;;
2119;SDS011;1066;52.540;13.420;2023-02-28T00:54:32;4.80;;;4.03;;
2119;SDS011;1066;52.540;13.420;2023-02-28T00:56:57;6.33;;;4.17;;
2119;SDS011;1066;52.540;13.420;2023-02-28T00:59:22;4.73;;;3.57;;
2119;SDS011;1066;52.540;13.420;2023-02-28T01:01:48;4.07;;;3.67;;
2119;SDS011;1066;52.540;13.420;2023-02-28T01:04:13;9.53;;;4.43;;
2119;SDS011;1066;52.540;13.420;2023-02-28T01:06:39;5.40;;;4.27;;
2119;SDS011;1066;52.540;13.420;2023-02-28T01:09:05;4.83;;;3.70;;
2119;SDS011;1066;52.540;13.420;2023-02-28T01:11:30;5.60;;;4.37;;
2119;SDS011;1066;52.540;13.420;2023-02-28T01:13:56;8.03;;;4.53;;
2119;SDS011;1066;52.540;13.420;2023-02-28T01:16:21;5.93;;;4.40;;
2119;SDS011;1066;52.540;13.420;2023-02-28T01:18:47;6.60;;;3.73;;
2119;SDS011;1066;52.540;13.420;2023-02-28T01:21:13;5.70;;;4.70;;
2119;SDS011;1066;52.540;13.420;2023-02-28T01:23:39;10.20;;;4.60;;
2119;SDS011;1066;52.540;13.420;2023-02-28T01:26:08;6.13;;;4.20;;
2119;SDS011;1066;52.540;13.420;2023-02-28T01:28:34;7.30;;;3.97;;
2119;SDS011;1066;52.540;13.420;2023-02-28T01:31:00;6.57;;;4.20;;
2119;SDS011;1066;52.540;13.420;2023-02-28T01:33:25;5.20;;;4.20;;
2119;SDS011;1066;52.540;13.420;2023-02-28T01:36:13;6.27;;;4.00;;
2119;SDS011;1066;52.540;13.420;2023-02-28T01:38:36;5.57;;;4.00;;
2119;SDS011;1066;52.540;13.420;2023-02-28T01:41:02;6.80;;;4.33;;
2119;SDS011;1066;52.540;13.420;2023-02-28T01:43:28;6.40;;;4.07;;
2119;SDS011;1066;52.540;13.420;2023-02-28T01:45:55;5.20;;;3.60;;
2119;SDS011;1066;52.540;13.420;2023-02-28T01:48:21;6.43;;;4.63;;
2119;SDS011;1066;52.540;13.420;2023-02-28T01:50:48;4.73;;;4.17;;
2119;SDS011;1066;52.540;13.420;2023-02-28T01:53:16;6.00;;;4.90;;
2119;SDS011;1066;52.540;13.420;2023-02-28T01:55:42;5.57;;;4.20;;
2119;SDS011;1066;52.540;13.420;2023-02-28T01:58:10;5.37;;;3.70;;
2119;SDS011;1066;52.540;13.420;2023-02-28T02:00:35;8.07;;;4.80;;
2119;SDS011;1066;52.540;13.420;2023-02-28T02:03:03;4.73;;;3.70;;
2119;SDS011;1066;52.540;13.420;2023-02-28T02:05:30;6.00;;;4.47;;
2119;SDS011;1066;52.540;13.420;2023-02-28T02:08:09;4.93;;;4.30;;
2119;SDS011;1066;52.540;13.420;2023-02-28T02:10:35;6.03;;;4.60;;
2119;SDS011;1066;52.540;13.420;2023-02-28T02:16:14;9.13;;;5.00;;
2119;SDS011;1066;52.540;13.420;2023-02-28T02:26:40;5.10;;;3.80;;
2119;SDS011;1066;52.540;13.420;2023-02-28T02:31:48;6.93;;;5.00;;
2119;SDS011;1066;52.540;13.420;2023-02-28T02:36:52;6.40;;;4.07;;
2119;SDS011;1066;52.540;13.420;2023-02-28T02:39:23;5.83;;;4.03;;
2119;SDS011;1066;52.540;13.420;2023-02-28T02:41:52;6.00;;;4.80;;
2119;SDS011;1066;52.540;13.420;2023-02-28T02:44:23;6.87;;;4.50;;
2119;SDS011;1066;52.540;13.420;2023-02-28T02:46:50;8.00;;;3.90;;
2119;SDS011;1066;52.540;13.420;2023-02-28T02:49:22;4.80;;;4.27;;
2119;SDS011;1066;52.540;13.420;2023-02-28T02:51:49;7.40;;;5.10;;
2119;SDS011;1066;52.540;13.420;2023-02-28T02:54:18;7.10;;;4.53;;
2119;SDS011;1066;52.540;13.420;2023-02-28T02:56:45;5.20;;;3.80;;
2119;SDS011;1066;52.540;13.420;2023-02-28T02:59:12;5.10;;;4.60;;
2119;SDS011;1066;52.540;13.420;2023-02-28T03:01:38;6.93;;;4.60;;
2119;SDS011;1066;52.540;13.420;2023-02-28T03:04:10;10.20;;;4.77;;
2119;SDS011;1066;52.540;13.420;2023-02-28T03:06:35;5.20;;;4.00;;
2119;SDS011;1066;52.540;13.420;2023-02-28T03:09:01;6.60;;;4.50;;
2119;SDS011;1066;52.540;13.420;2023-02-28T03:11:26;7.73;;;5.17;;
2119;SDS011;1066;52.540;13.420;2023-02-28T03:14:14;6.80;;;4.97;;
2119;SDS011;1066;52.540;13.420;2023-02-28T03:21:42;8.73;;;5.40;;
2119;SDS011;1066;52.540;13.420;2023-02-28T03:24:10;6.20;;;5.60;;
2119;SDS011;1066;52.540;13.420;2023-02-28T03:26:39;6.80;;;5.50;;
2119;SDS011;1066;52.540;13.420;2023-02-28T03:29:15;6.53;;;4.60;;
2119;SDS011;1066;52.540;13.420;2023-02-28T03:31:45;6.93;;;4.60;;
2119;SDS011;1066;52.540;13.420;2023-02-28T03:34:13;5.43;;;4.90;;
2119;SDS011;1066;52.540;13.420;2023-02-28T03:36:42;6.33;;;5.27;;
2119;SDS011;1066;52.540;13.420;2023-02-28T03:39:17;7.13;;;4.80;;
2119;SDS011;1066;52.540;13.420;2023-02-28T03:41:45;6.90;;;5.00;;
2119;SDS011;1066;52.540;13.420;2023-02-28T03:44:16;6.80;;;5.27;;
2119;SDS011;1066;52.540;13.420;2023-02-28T03:47:27;7.97;;;5.80;;
2119;SDS011;1066;52.540;13.420;2023-02-28T03:49:42;5.43;;;4.60;;
2119;SDS011;1066;52.540;13.420;2023-02-28T03:52:10;7.37;;;5.10;;
2119;SDS011;1066;52.540;13.420;2023-02-28T03:54:37;6.10;;;4.67;;
2119;SDS011;1066;52.540;13.420;2023-02-28T03:59:49;5.70;;;4.80;;
2119;SDS011;1066;52.540;13.420;2023-02-28T04:02:18;6.17;;;4.77;;
2119;SDS011;1066;52.540;13.420;2023-02-28T04:04:43;6.87;;;4.90;;
2119;SDS011;1066;52.540;13.420;2023-02-28T04:07:10;8.77;;;5.63;;
2119;SDS011;1066;52.540;13.420;2023-02-28T04:09:36;8.73;;;5.10;;
2119;SDS011;1066;52.540;13.420;2023-02-28T04:12:01;5.83;;;4.73;;
2119;SDS011;1066;52.540;13.420;2023-02-28T04:14:26;5.90;;;5.10;;
2119;SDS011;1066;52.540;13.420;2023-02-28T04:16:51;7.10;;;5.30;;
2119;SDS011;1066;52.540;13.420;2023-02-28T04:19:17;6.40;;;5.10;;
2119;SDS011;1066;52.540;13.420;2023-02-28T04:21:47;6.53;;;5.27;;
2119;SDS011;1066;52.540;13.420;2023-02-28T04:24:13;6.37;;;5.70;;
2119;SDS011;1066;52.540;13.420;2023-02-28T04:26:39;6.90;;;5.77;;
2119;SDS011;1066;52.540;13.420;2023-02-28T04:29:05;7.50;;;4.30;;
2119;SDS011;1066;52.540;13.420;2023-02-28T04:31:30;6.80;;;5.80;;
2119;SDS011;1066;52.540;13.420;2023-02-28T04:33:55;6.70;;;4.63;;
2119;SDS011;1066;52.540;13.420;2023-02-28T04:36:21;7.63;;;6.10;;
2119;SDS011;1066;52.540;13.420;2023-02-28T04:38:47;6.60;;;5.67;;
2119;SDS011;1066;52.540;13.420;2023-02-28T04:41:13;8.80;;;6.23;;
2119;SDS011;1066;52.540;13.420;2023-02-28T04:43:38;7.60;;;6.50;;
2119;SDS011;1066;52.540;13.420;2023-02-28T04:46:04;11.70;;;6.50;;
2119;SDS011;1066;52.540;13.420;2023-02-28T04:48:31;10.77;;;6.87;;
2119;SDS011;1066;52.540;13.420;2023-02-28T04:51:01;11.10;;;6.50;;
2119;SDS011;1066;52.540;13.420;2023-02-28T04:53:27;10.97;;;7.03;;
2119;SDS011;1066;52.540;13.420;2023-02-28T04:55:52;8.93;;;6.17;;
2119;SDS011;1066;52.540;13.420;2023-02-28T04:58:17;8.73;;;6.10;;
2119;SDS011;1066;52.540;13.420;2023-02-28T05:00:43;7.40;;;5.87;;
2119;SDS011;1066;52.540;13.420;2023-02-28T05:03:08;9.00;;;5.53;;
2119;SDS011;1066;52.540;13.420;2023-02-28T05:05:34;7.30;;;6.10;;
2119;SDS011;1066;52.540;13.420;2023-02-28T05:07:59;9.20;;;6.27;;
2119;SDS011;1066;52.540;13.420;2023-02-28T05:10:25;9.43;;;7.10;;
2119;SDS011;1066;52.540;13.420;2023-02-28T05:12:50;7.73;;;5.37;;
2119;SDS011;1066;52.540;13.420;2023-02-28T05:15:16;7.60;;;6.47;;
2119;SDS011;1066;52.540;13.420;2023-02-28T05:17:41;8.50;;;6.83;;
2119;SDS011;1066;52.540;13.420;2023-02-28T05:20:10;7.90;;;6.40;;
2119;SDS011;1066;52.540;13.420;2023-02-28T05:22:39;9.67;;;6.90;;
2119;SDS011;1066;52.540;13.420;2023-02-28T05:25:04;12.00;;;7.17;;
2119;SDS011;1066;52.540;13.420;2023-02-28T05:27:30;10.37;;;6.93;;
2119;SDS011;1066;52.540;13.420;2023-02-28T05:29:58;9.20;;;7.13;;
2119;SDS011;1066;52.540;13.420;2023-02-28T05:32:24;10.03;;;6.30;;
2119;SDS011;1066;52.540;13.420;2023-02-28T05:34:49;10.43;;;6.90;;
2119;SDS011;1066;52.540;13.420;2023-02-28T05:37:14;11.13;;;8.03;;
2119;SDS011;1066;52.540;13.420;2023-02-28T05:39:40;13.07;;;7.07;;
2119;SDS011;1066;52.540;13.420;2023-02-28T05:42:06;10.00;;;6.97;;
2119;SDS011;1066;52.540;13.420;2023-02-28T05:44:31;10.93;;;7.43;;
2119;SDS011;1066;52.540;13.420;2023-02-28T05:46:56;10.30;;;6.90;;
2119;SDS011;1066;52.540;13.420;2023-02-28T05:49:22;12.73;;;6.93;;
2119;SDS011;1066;52.540;13.420;2023-02-28T05:51:47;9.00;;;6.67;;
2119;SDS011;1066;52.540;13.420;2023-02-28T05:54:12;9.50;;;7.43;;
2119;SDS011;1066;52.540;13.420;2023-02-28T05:56:38;9.13;;;7.20;;
2119;SDS011;1066;52.540;13.420;2023-02-28T05:59:04;7.73;;;6.60;;
2119;SDS011;1066;52.540;13.420;2023-02-28T06:01:31;7.10;;;6.07;;
2119;SDS011;1066;52.540;13.420;2023-02-28T06:03:57;8.37;;;7.17;;
2119;SDS011;1066;52.540;13.420;2023-02-28T06:06:23;7.80;;;6.70;;
2119;SDS011;1066;52.540;13.420;2023-02-28T06:08:48;7.17;;;5.80;;
2119;SDS011;1066;52.540;13.420;2023-02-28T06:11:13;8.20;;;6.77;;
2119;SDS011;1066;52.540;13.420;2023-02-28T06:13:38;10.57;;;6.20;;
2119;SDS011;1066;52.540;13.420;2023-02-28T06:16:04;10.93;;;7.53;;
2119;SDS011;1066;52.540;13.420;2023-02-28T06:18:29;7.97;;;5.80;;
2119;SDS011;1066;52.540;13.420;2023-02-28T06:20:54;8.53;;;6.90;;
2119;SDS011;1066;52.540;13.420;2023-02-28T06:23:20;8.80;;;6.20;;
2119;SDS011;1066;52.540;13.420;2023-02-28T06:25:46;7.73;;;6.20;;
2119;SDS011;1066;52.540;13.420;2023-02-28T06:28:11;9.17;;;6.03;;
2119;SDS011;1066;52.540;13.420;2023-02-28T06:30:37;11.13;;;6.60;;
2119;SDS011;1066;52.540;13.420;2023-02-28T06:33:02;8.30;;;5.93;;
2119;SDS011;1066;52.540;13.420;2023-02-28T06:35:27;8.20;;;5.90;;
2119;SDS011;1066;52.540;13.420;2023-02-28T06:37:52;11.90;;;7.93;;
2119;SDS011;1066;52.540;13.420;2023-02-28T06:40:18;11.03;;;8.07;;
2119;SDS011;1066;52.540;13.420;2023-02-28T06:42:43;11.33;;;8.57;;
2119;SDS011;1066;52.540;13.420;2023-02-28T06:45:09;12.10;;;9.53;;
2119;SDS011;1066;52.540;13.420;2023-02-28T06:47:34;9.67;;;7.70;;
2119;SDS011;1066;52.540;13.420;2023-02-28T06:50:00;9.93;;;8.10;;
2119;SDS011;1066;52.540;13.420;2023-02-28T06:52:26;9.40;;;7.93;;
2119;SDS011;1066;52.540;13.420;2023-02-28T06:54:51;9.40;;;8.03;;
2119;SDS011;1066;52.540;13.420;2023-02-28T06:57:24;14.80;;;9.53;;
2119;SDS011;1066;52.540;13.420;2023-02-28T06:59:50;11.50;;;8.30;;
2119;SDS011;1066;52.540;13.420;2023-02-28T07:02:15;9.67;;;8.63;;
2119;SDS011;1066;52.540;13.420;2023-02-28T07:04:40;10.00;;;8.17;;
2119;SDS011;1066;52.540;13.420;2023-02-28T07:07:09;14.93;;;9.37;;
2119;SDS011;1066;52.540;13.420;2023-02-28T07:09:34;15.73;;;9.10;;
2119;SDS011;1066;52.540;13.420;2023-02-28T07:12:00;10.70;;;8.30;;
2119;SDS011;1066;52.540;13.420;2023-02-28T07:14:25;21.13;;;9.50;;
2119;SDS011;1066;52.540;13.420;2023-02-28T07:16:51;10.43;;;8.50;;
2119;SDS011;1066;52.540;13.420;2023-02-28T07:19:16;12.07;;;9.43;;
2119;SDS011;1066;52.540;13.420;2023-02-28T07:21:41;11.10;;;8.67;;
2119;SDS011;1066;52.540;13.420;2023-02-28T07:24:06;11.87;;;7.90;;
2119;SDS011;1066;52.540;13.420;2023-02-28T07:26:32;15.20;;;9.47;;
2119;SDS011;1066;52.540;13.420;2023-02-28T07:28:59;12.10;;;8.03;;
2119;SDS011;1066;52.540;13.420;2023-02-28T07:31:24;13.60;;;8.57;;
2119;SDS011;1066;52.540;13.420;2023-02-28T07:33:49;12.30;;;8.20;;
2119;SDS011;1066;52.540;13.420;2023-02-28T07:36:16;9.97;;;7.20;;
2119;SDS011;1066;52.540;13.420;2023-02-28T07:38:43;15.57;;;9.90;;
2119;SDS011;1066;52.540;13.420;2023-02-28T07:41:08;13.20;;;8.30;;
2119;SDS011;1066;52.540;13.420;2023-02-28T07:43:34;13.03;;;9.30;;
2119;SDS011;1066;52.540;13.420;2023-02-28T07:46:06;13.23;;;8.50;;
2119;SDS011;1066;52.540;13.420;2023-02-28T07:48:32;12.60;;;9.33;;
2119;SDS011;1066;52.540;13.420;2023-02-28T07:50:57;11.13;;;7.83;;
2119;SDS011;1066;52.540;13.420;2023-02-28T07:53:23;11.70;;;8.57;;
2119;SDS011;1066;52.540;13.420;2023-02-28T07:55:48;11.80;;;7.57;;
2119;SDS011;1066;52.540;13.420;2023-02-28T07:58:14;12.13;;;7.80;;
2119;SDS011;1066;52.540;13.420;2023-02-28T08:00:39;9.47;;;8.17;;
2119;SDS011;1066;52.540;13.420;2023-02-28T08:03:04;10.23;;;6.63;;
2119;SDS011;1066;52.540;13.420;2023-02-28T08:05:29;9.50;;;6.20;;
2119;SDS011;1066;52.540;13.420;2023-02-28T08:07:55;7.57;;;5.60;;
2119;SDS011;1066;52.540;13.420;2023-02-28T08:10:20;6.53;;;5.37;;
2119;SDS011;1066;52.540;13.420;2023-02-28T08:12:45;6.70;;;4.73;;
2119;SDS011;1066;52.540;13.420;2023-02-28T08:15:10;7.53;;;5.27;;
2119;SDS011;1066;52.540;13.420;2023-02-28T08:17:36;8.10;;;5.50;;
2119;SDS011;1066;52.540;13.420;2023-02-28T08:20:01;9.13;;;5.93;;
2119;SDS011;1066;52.540;13.420;2023-02-28T08:22:26;10.17;;;6.00;;
2119;SDS011;1066;52.540;13.420;2023-02-28T08:24:51;10.13;;;6.10;;
2119;SDS011;1066;52.540;13.420;2023-02-28T08:27:17;6.47;;;4.53;;
2119;SDS011;1066;52.540;13.420;2023-02-28T08:29:42;7.47;;;4.67;;
2119;SDS011;1066;52.540;13.420;2023-02-28T08:32:07;6.13;;;4.43;;
2119;SDS011;1066;52.540;13.420;2023-02-28T08:34:32;7.03;;;4.43;;
2119;SDS011;1066;52.540;13.420;2023-02-28T08:36:58;8.13;;;4.20;;
2119;SDS011;1066;52.540;13.420;2023-02-28T08:39:23;7.60;;;4.40;;
2119;SDS011;1066;52.540;13.420;2023-02-28T08:41:48;4.90;;;3.70;;
2119;SDS011;1066;52.540;13.420;2023-02-28T08:44:13;5.63;;;3.57;;
2119;SDS011;1066;52.540;13.420;2023-02-28T08:46:38;4.53;;;3.67;;
2119;SDS011;1066;52.540;13.420;2023-02-28T08:49:04;4.40;;;2.83;;
2119;SDS011;1066;52.540;13.420;2023-02-28T08:51:29;7.30;;;2.70;;
2119;SDS011;1066;52.540;13.420;2023-02-28T08:53:55;5.00;;;3.50;;
2119;SDS011;1066;52.540;13.420;2023-02-28T08:56:21;5.33;;;3.50;;
2119;SDS011;1066;52.540;13.420;2023-02-28T08:58:47;3.33;;;2.80;;
2119;SDS011;1066;52.540;13.420;2023-02-28T09:01:14;7.83;;;3.90;;
2119;SDS011;1066;52.540;13.420;2023-02-28T09:03:40;6.80;;;4.17;;
2119;SDS011;1066;52.540;13.420;2023-02-28T09:06:06;4.77;;;3.47;;
2119;SDS011;1066;52.540;13.420;2023-02-28T09:08:32;2.63;;;2.10;;
2119;SDS011;1066;52.540;13.420;2023-02-28T09:10:57;5.60;;;2.70;;
2119;SDS011;1066;52.540;13.420;2023-02-28T09:13:23;3.30;;;2.37;;
2119;SDS011;1066;52.540;13.420;2023-02-28T09:15:49;2.70;;;2.50;;
2119;SDS011;1066;52.540;13.420;2023-02-28T09:18:14;5.70;;;2.40;;
2119;SDS011;1066;52.540;13.420;2023-02-28T09:20:40;3.20;;;2.90;;
2119;SDS011;1066;52.540;13.420;2023-02-28T09:23:09;3.00;;;2.60;;
2119;SDS011;1066;52.540;13.420;2023-02-28T09:25:34;2.90;;;2.40;;
2119;SDS011;1066;52.540;13.420;2023-02-28T09:28:00;3.20;;;2.80;;
2119;SDS011;1066;52.540;13.420;2023-02-28T09:30:25;4.23;;;2.37;;
2119;SDS011;1066;52.540;13.420;2023-02-28T09:32:50;3.10;;;2.30;;
2119;SDS011;1066;52.540;13.420;2023-02-28T09:35:19;4.90;;;2.63;;
2119;SDS011;1066;52.540;13.420;2023-02-28T09:37:46;5.13;;;2.30;;
2119;SDS011;1066;52.540;13.420;2023-02-28T09:40:11;3.57;;;2.40;;
2119;SDS011;1066;52.540;13.420;2023-02-28T09:42:37;4.73;;;2.80;;
2119;SDS011;1066;52.540;13.420;2023-02-28T09:45:03;4.47;;;2.60;;
2119;SDS011;1066;52.540;13.420;2023-02-28T09:47:38;2.73;;;1.83;;
2119;SDS011;1066;52.540;13.420;2023-02-28T09:50:50;3.97;;;2.20;;
2119;SDS011;1066;52.540;13.420;2023-02-28T09:52:49;3.27;;;1.70;;
2119;SDS011;1066;52.540;13.420;2023-02-28T09:57:40;2.53;;;2.33;;
2119;SDS011;1066;52.540;13.420;2023-02-28T10:00:19;3.43;;;2.40;;
2119;SDS011;1066;52.540;13.420;2023-02-28T10:03:03;3.90;;;2.60;;
2119;SDS011;1066;52.540;13.420;2023-02-28T10:05:39;3.57;;;2.77;;
2119;SDS011;1066;52.540;13.420;2023-02-28T10:08:09;6.67;;;2.50;;
2119;SDS011;1066;52.540;13.420;2023-02-28T10:10:39;5.00;;;2.80;;
2119;SDS011;1066;52.540;13.420;2023-02-28T10:13:06;5.77;;;2.70;;
2119;SDS011;1066;52.540;13.420;2023-02-28T10:15:37;6.23;;;2.67;;
2119;SDS011;1066;52.540;13.420;2023-02-28T10:18:06;3.07;;;2.63;;
2119;SDS011;1066;52.540;13.420;2023-02-28T10:20:37;4.07;;;2.93;;
2119;SDS011;1066;52.540;13.420;2023-02-28T10:23:07;6.00;;;3.10;;
2119;SDS011;1066;52.540;13.420;2023-02-28T10:25:36;3.90;;;3.10;;
2119;SDS011;1066;52.540;13.420;2023-02-28T10:30:32;4.30;;;3.00;;
2119;SDS011;1066;52.540;13.420;2023-02-28T10:32:58;5.53;;;2.60;;
2119;SDS011;1066;52.540;13.420;2023-02-28T10:35:24;5.23;;;2.67;;
2119;SDS011;1066;52.540;13.420;2023-02-28T10:37:51;3.00;;;2.00;;
2119;SDS011;1066;52.540;13.420;2023-02-28T10:42:54;2.77;;;2.00;;
2119;SDS011;1066;52.540;13.420;2023-02-28T10:45:20;4.00;;;2.03;;
2119;SDS011;1066;52.540;13.420;2023-02-28T10:50:27;2.90;;;2.00;;
2119;SDS011;1066;52.540;13.420;2023-02-28T10:52:52;4.93;;;1.80;;
2119;SDS011;1066;52.540;13.420;2023-02-28T10:55:22;2.60;;;1.87;;
2119;SDS011;1066;52.540;13.420;2023-02-28T10:57:48;2.33;;;2.00;;
2119;SDS011;1066;52.540;13.420;2023-02-28T11:00:15;2.43;;;1.80;;
2119;SDS011;1066;52.540;13.420;2023-02-28T11:02:40;1.67;;;1.57;;
2119;SDS011;1066;52.540;13.420;2023-02-28T11:05:23;2.07;;;1.87;;
2119;SDS011;1066;52.540;13.420;2023-02-28T11:07:52;2.30;;;1.60;;
2119;SDS011;1066;52.540;13.420;2023-02-28T11:10:19;3.17;;;2.00;;
2119;SDS011;1066;52.540;13.420;2023-02-28T11:12:45;2.63;;;2.10;;
2119;SDS011;1066;52.540;13.420;2023-02-28T11:15:24;3.00;;;2.47;;
2119;SDS011;1066;52.540;13.420;2023-02-28T11:20:38;5.83;;;3.13;;
2119;SDS011;1066;52.540;13.420;2023-02-28T11:23:04;4.27;;;2.20;;
2119;SDS011;1066;52.540;13.420;2023-02-28T11:25:30;5.07;;;2.93;;
2119;SDS011;1066;52.540;13.420;2023-02-28T11:28:03;4.03;;;3.07;;
2119;SDS011;1066;52.540;13.420;2023-02-28T11:32:56;3.50;;;2.50;;
2119;SDS011;1066;52.540;13.420;2023-02-28T11:35:55;3.77;;;3.30;;
2119;SDS011;1066;52.540;13.420;2023-02-28T11:38:13;2.60;;;2.40;;
2119;SDS011;1066;52.540;13.420;2023-02-28T11:45:54;8.40;;;2.83;;
2119;SDS011;1066;52.540;13.420;2023-02-28T11:48:27;2.60;;;2.40;;
2119;SDS011;1066;52.540;13.420;2023-02-28T11:58:50;3.80;;;3.20;;
2119;SDS011;1066;52.540;13.420;2023-02-28T12:01:21;3.40;;;2.47;;
2119;SDS011;1066;52.540;13.420;2023-02-28T12:06:20;3.70;;;2.80;;
2119;SDS011;1066;52.540;13.420;2023-02-28T12:31:46;3.20;;;2.83;;
2119;SDS011;1066;52.540;13.420;2023-02-28T12:34:16;4.67;;;3.57;;
2119;SDS011;1066;52.540;13.420;2023-02-28T12:36:42;3.47;;;3.07;;
2119;SDS011;1066;52.540;13.420;2023-02-28T12:39:16;5.00;;;3.10;;
2119;SDS011;1066;52.540;13.420;2023-02-28T12:41:54;3.50;;;2.50;;
2119;SDS011;1066;52.540;13.420;2023-02-28T12:46:51;4.07;;;3.50;;
2119;SDS011;1066;52.540;13.420;2023-02-28T12:49:19;3.33;;;2.90;;
2119;SDS011;1066;52.540;13.420;2023-02-28T12:51:46;5.00;;;3.50;;
2119;SDS011;1066;52.540;13.420;2023-02-28T12:54:14;3.40;;;2.80;;
2119;SDS011;1066;52.540;13.420;2023-02-28T13:09:21;3.60;;;2.97;;
2119;SDS011;1066;52.540;13.420;2023-02-28T13:11:47;5.33;;;2.90;;
2119;SDS011;1066;52.540;13.420;2023-02-28T13:14:23;5.67;;;3.33;;
2119;SDS011;1066;52.540;13.420;2023-02-28T13:16:57;5.60;;;3.03;;
2119;SDS011;1066;52.540;13.420;2023-02-28T13:19:23;3.83;;;2.97;;
2119;SDS011;1066;52.540;13.420;2023-02-28T13:21:50;4.67;;;3.00;;
2119;SDS011;1066;52.540;13.420;2023-02-28T13:29:27;2.50;;;2.30;;
2119;SDS011;1066;52.540;13.420;2023-02-28T13:34:33;4.70;;;2.80;;
2119;SDS011;1066;52.540;13.420;2023-02-28T13:45:36;4.90;;;3.27;;
2119;SDS011;1066;52.540;13.420;2023-02-28T13:47:53;3.10;;;2.20;;
2119;SDS011;1066;52.540;13.420;2023-02-28T13:52:56;3.80;;;2.93;;
2119;SDS011;1066;52.540;13.420;2023-02-28T14:05:34;5.37;;;3.00;;
2119;SDS011;1066;52.540;13.420;2023-02-28T14:08:04;2.90;;;2.60;;
2119;SDS011;1066;52.540;13.420;2023-02-28T14:10:32;4.03;;;3.43;;
2119;SDS011;1066;52.540;13.420;2023-02-28T14:12:59;3.50;;;3.00;;
2119;SDS011;1066;52.540;13.420;2023-02-28T14:20:47;4.37;;;2.60;;
2119;SDS011;1066;52.540;13.420;2023-02-28T14:23:26;4.30;;;3.63;;
2119;SDS011;1066;52.540;13.420;2023-02-28T14:26:08;6.47;;;3.30;;
2119;SDS011;1066;52.540;13.420;2023-02-28T14:28:47;6.23;;;3.70;;
2119;SDS011;1066;52.540;13.420;2023-02-28T14:31:22;4.63;;;3.10;;
2119;SDS011;1066;52.540;13.420;2023-02-28T14:34:12;4.13;;;3.10;;
2119;SDS011;1066;52.540;13.420;2023-02-28T14:36:42;3.87;;;2.73;;
2119;SDS011;1066;52.540;13.420;2023-02-28T14:39:11;4.93;;;4.10;;
2119;SDS011;1066;52.540;13.420;2023-02-28T14:41:38;5.00;;;3.53;;
2119;SDS011;1066;52.540;13.420;2023-02-28T14:46:41;4.73;;;2.90;;
2119;SDS011;1066;52.540;13.420;2023-02-28T14:49:13;4.47;;;3.20;;
2119;SDS011;1066;52.540;13.420;2023-02-28T14:51:40;4.40;;;2.77;;
2119;SDS011;1066;52.540;13.420;2023-02-28T14:54:05;3.80;;;2.87;;
2119;SDS011;1066;52.540;13.420;2023-02-28T14:56:37;3.90;;;3.00;;
2119;SDS011;1066;52.540;13.420;2023-02-28T14:59:03;4.23;;;3.67;;
2119;SDS011;1066;52.540;13.420;2023-02-28T15:01:28;4.23;;;3.20;;
2119;SDS011;1066;52.540;13.420;2023-02-28T15:04:16;3.93;;;3.23;;
2119;SDS011;1066;52.540;13.420;2023-02-28T15:06:42;4.37;;;2.90;;
2119;SDS011;1066;52.540;13.420;2023-02-28T15:09:15;4.40;;;3.50;;
2119;SDS011;1066;52.540;13.420;2023-02-28T15:11:40;3.83;;;2.60;;
2119;SDS011;1066;52.540;13.420;2023-02-28T15:14:06;3.03;;;2.73;;
2119;SDS011;1066;52.540;13.420;2023-02-28T15:16:39;5.27;;;3.13;;
2119;SDS011;1066;52.540;13.420;2023-02-28T15:19:07;3.50;;;3.00;;
2119;SDS011;1066;52.540;13.420;2023-02-28T15:21:38;3.80;;;3.30;;
2119;SDS011;1066;52.540;13.420;2023-02-28T15:24:11;4.43;;;3.20;;
2119;SDS011;1066;52.540;13.420;2023-02-28T15:26:40;4.20;;;3.37;;
2119;SDS011;1066;52.540;13.420;2023-02-28T15:29:07;3.70;;;2.90;;
2119;SDS011;1066;52.540;13.420;2023-02-28T15:31:34;3.63;;;2.77;;
2119;SDS011;1066;52.540;13.420;2023-02-28T15:34:04;4.63;;;3.47;;
2119;SDS011;1066;52.540;13.420;2023-02-28T15:36:30;4.67;;;3.80;;
2119;SDS011;1066;52.540;13.420;2023-02-28T15:38:58;4.57;;;3.70;;
2119;SDS011;1066;52.540;13.420;2023-02-28T15:41:24;4.13;;;3.27;;
2119;SDS011;1066;52.540;13.420;2023-02-28T15:43:57;13.03;;;4.20;;
2119;SDS011;1066;52.540;13.420;2023-02-28T15:46:35;8.73;;;3.93;;
2119;SDS011;1066;52.540;13.420;2023-02-28T15:49:00;6.07;;;3.20;;
2119;SDS011;1066;52.540;13.420;2023-02-28T15:51:33;6.10;;;3.30;;
2119;SDS011;1066;52.540;13.420;2023-02-28T15:54:04;4.57;;;2.80;;
2119;SDS011;1066;52.540;13.420;2023-02-28T15:56:31;3.97;;;2.40;;
2119;SDS011;1066;52.540;13.420;2023-02-28T15:58:57;3.60;;;3.30;;
2119;SDS011;1066;52.540;13.420;2023-02-28T16:01:44;4.23;;;3.23;;
2119;SDS011;1066;52.540;13.420;2023-02-28T16:09:03;5.50;;;4.23;;
2119;SDS011;1066;52.540;13.420;2023-02-28T16:11:28;9.17;;;4.40;;
2119;SDS011;1066;52.540;13.420;2023-02-28T16:13:55;5.00;;;4.50;;
2119;SDS011;1066;52.540;13.420;2023-02-28T16:16:21;5.13;;;4.63;;
2119;SDS011;1066;52.540;13.420;2023-02-28T16:18:47;5.13;;;4.40;;
2119;SDS011;1066;52.540;13.420;2023-02-28T16:21:12;6.30;;;4.40;;
2119;SDS011;1066;52.540;13.420;2023-02-28T16:23:37;7.00;;;4.93;;
2119;SDS011;1066;52.540;13.420;2023-02-28T16:26:03;7.60;;;4.77;;
2119;SDS011;1066;52.540;13.420;2023-02-28T16:28:31;4.67;;;3.30;;
2119;SDS011;1066;52.540;13.420;2023-02-28T16:30:57;4.20;;;3.17;;
2119;SDS011;1066;52.540;13.420;2023-02-28T16:33:24;5.77;;;3.53;;
2119;SDS011;1066;52.540;13.420;2023-02-28T16:35:49;5.37;;;4.10;;
2119;SDS011;1066;52.540;13.420;2023-02-28T16:38:14;4.70;;;3.00;;
2119;SDS011;1066;52.540;13.420;2023-02-28T16:40:39;5.40;;;3.37;;
2119;SDS011;1066;52.540;13.420;2023-02-28T16:43:06;5.40;;;4.00;;
2119;SDS011;1066;52.540;13.420;2023-02-28T16:45:32;4.97;;;3.63;;
2119;SDS011;1066;52.540;13.420;2023-02-28T16:47:58;5.83;;;3.40;;
2119;SDS011;1066;52.540;13.420;2023-02-28T16:50:25;3.80;;;3.50;;
2119;SDS011;1066;52.540;13.420;2023-02-28T16:52:50;4.33;;;3.93;;
2119;SDS011;1066;52.540;13.420;2023-02-28T16:55:19;6.30;;;3.67;;
2119;SDS011;1066;52.540;13.420;2023-02-28T16:57:46;5.40;;;3.80;;
2119;SDS011;1066;52.540;13.420;2023-02-28T17:00:13;8.30;;;6.57;;
2119;SDS011;1066;52.540;13.420;2023-02-28T17:02:39;5.10;;;4.57;;
2119;SDS011;1066;52.540;13.420;2023-02-28T17:05:05;8.37;;;5.80;;
2119;SDS011;1066;52.540;13.420;2023-02-28T17:07:31;4.10;;;3.73;;
2119;SDS011;1066;52.540;13.420;2023-02-28T17:09:56;5.63;;;4.30;;
2119;SDS011;1066;52.540;13.420;2023-02-28T17:12:21;7.37;;;4.43;;
2119;SDS011;1066;52.540;13.420;2023-02-28T17:14:47;6.97;;;4.53;;
2119;SDS011;1066;52.540;13.420;2023-02-28T17:17:15;6.57;;;5.00;;